createdAt,value
2022-11-13T00:04:12.845Z,20.33
2022-11-13T00:12:39.280Z,19.77
2022-11-13T00:21:08.600Z,20.77
2022-11-13T00:29:35.500Z,25.38
2022-11-13T00:37:59.307Z,19.27
2022-11-13T00:46:25.652Z,17.77
2022-11-13T00:54:49.593Z,14.85
2022-11-13T01:12:07.058Z,13.75
2022-11-13T01:21:36.814Z,14.27
2022-11-13T01:30:07.510Z,13.63
2022-11-13T01:38:36.867Z,14.45
2022-11-13T01:47:01.398Z,16.52
2022-11-13T01:55:28.297Z,16.70
2022-11-13T02:03:52.110Z,15.40
2022-11-13T02:12:21.865Z,12.60
2022-11-13T02:20:53.982Z,11.43
2022-11-13T02:29:20.922Z,10.85
2022-11-13T02:37:45.161Z,9.85
2022-11-13T02:46:11.980Z,11.38
2022-11-13T02:54:35.921Z,11.73
2022-11-13T03:03:02.661Z,12.20
2022-11-13T03:11:26.547Z,14.55
2022-11-13T03:19:53.548Z,13.68
2022-11-13T03:28:17.801Z,13.93
2022-11-13T03:36:44.223Z,11.05
2022-11-13T03:45:09.200Z,12.23
2022-11-13T03:53:35.965Z,11.18
2022-11-13T04:02:00.192Z,12.48
2022-11-13T04:18:50.015Z,10.25
2022-11-13T04:27:16.757Z,9.40
2022-11-13T04:35:41.884Z,11.27
2022-11-13T04:44:08.643Z,11.00
2022-11-13T04:52:32.573Z,12.15
2022-11-13T05:00:59.165Z,11.40
2022-11-13T05:09:23.280Z,11.85
2022-11-13T05:17:52.122Z,10.80
2022-11-13T05:26:17.112Z,11.45
2022-11-13T05:34:44.081Z,10.52
2022-11-13T05:43:08.008Z,10.50
2022-11-13T05:51:37.930Z,8.07
2022-11-13T06:00:01.663Z,10.18
2022-11-13T06:08:28.517Z,9.88
2022-11-13T06:16:52.719Z,9.02
2022-11-13T06:25:19.410Z,9.48
2022-11-13T06:33:44.686Z,11.15
2022-11-13T06:42:11.408Z,11.00
2022-11-13T06:50:35.398Z,12.25
2022-11-13T06:59:06.292Z,9.18
2022-11-13T07:07:32.217Z,8.35
2022-11-13T07:16:15.784Z,10.23
2022-11-13T07:24:40.825Z,10.15
2022-11-13T07:33:08.187Z,8.82
2022-11-13T07:41:32.287Z,9.65
2022-11-13T07:50:05.520Z,10.02
2022-11-13T07:58:32.801Z,10.40
2022-11-13T08:06:59.589Z,9.25
2022-11-13T08:15:23.773Z,10.10
2022-11-13T08:23:50.514Z,9.65
2022-11-13T08:32:17.893Z,10.43
2022-11-13T08:40:44.732Z,9.45
2022-11-13T08:49:09.146Z,9.52
2022-11-13T08:57:36.104Z,11.55
2022-11-13T09:06:00.085Z,10.65
2022-11-13T09:14:28.290Z,10.52
2022-11-13T09:22:52.385Z,10.27
2022-11-13T09:31:19.431Z,11.85
2022-11-13T09:39:43.465Z,10.75
2022-11-13T09:48:21.919Z,15.05
2022-11-13T09:56:49.961Z,12.95
2022-11-13T10:05:25.014Z,13.45
2022-11-13T10:13:52.395Z,12.77
2022-11-13T10:22:32.862Z,13.70
2022-11-13T10:30:57.881Z,12.50
2022-11-13T10:39:24.714Z,14.65
2022-11-13T10:48:04.357Z,14.43
2022-11-13T10:56:33.809Z,16.42
2022-11-13T11:05:09.541Z,13.70
2022-11-13T11:13:35.894Z,14.10
2022-11-13T11:22:09.947Z,15.30
2022-11-13T11:30:42.984Z,15.15
2022-11-13T11:39:18.469Z,15.05
2022-11-13T11:47:45.574Z,13.63
2022-11-13T11:56:26.569Z,14.50
2022-11-13T12:05:03.900Z,19.63
2022-11-13T12:13:32.475Z,15.40
2022-11-13T12:22:07.393Z,14.80
2022-11-13T12:30:45.178Z,15.38
2022-11-13T12:39:33.699Z,16.35
2022-11-13T12:47:57.861Z,12.45
2022-11-13T12:56:34.165Z,13.07
2022-11-13T13:05:11.161Z,10.90
2022-11-13T13:13:43.890Z,10.93
2022-11-13T13:22:14.114Z,10.27
2022-11-13T13:30:57.427Z,9.70
2022-11-13T13:39:38.924Z,10.75
2022-11-13T13:48:10.826Z,10.10
2022-11-13T13:56:35.353Z,10.63
2022-11-13T14:05:01.987Z,9.18
2022-11-13T14:13:27.900Z,10.48
2022-11-13T14:21:56.695Z,10.30
2022-11-13T14:30:27.422Z,15.57
2022-11-13T14:38:55.142Z,15.95
2022-11-13T14:47:28.701Z,15.68
2022-11-13T14:55:57.711Z,16.95
2022-11-13T15:04:21.731Z,17.55
2022-11-13T15:12:48.991Z,17.17
2022-11-13T15:21:12.855Z,17.70
2022-11-13T15:29:39.639Z,17.45
2022-11-13T15:38:03.900Z,21.70
2022-11-13T15:46:30.871Z,24.38
2022-11-13T15:54:55.851Z,29.23
2022-11-13T16:03:23.885Z,36.28
2022-11-13T16:11:47.857Z,33.58
2022-11-13T16:29:07.134Z,28.90
2022-11-13T16:37:27.865Z,29.15
2022-11-13T16:45:52.372Z,29.02
2022-11-13T16:54:19.156Z,35.60
2022-11-13T17:02:43.180Z,33.97
2022-11-13T17:11:09.617Z,37.33
2022-11-13T17:19:33.865Z,35.47
2022-11-13T17:28:00.421Z,30.50
2022-11-13T17:36:24.825Z,32.95
2022-11-13T17:44:51.553Z,31.02
2022-11-13T17:53:16.172Z,30.13
2022-11-13T18:01:42.891Z,31.95
2022-11-13T18:10:07.233Z,30.13
2022-11-13T18:18:33.898Z,28.85
2022-11-13T18:26:57.877Z,29.13
2022-11-13T18:35:24.621Z,27.88
2022-11-13T18:43:50.248Z,29.33
2022-11-13T18:52:17.172Z,35.60
2022-11-13T19:00:41.440Z,32.67
2022-11-13T19:17:32.028Z,34.28
2022-11-13T19:25:58.742Z,37.63
2022-11-13T19:34:22.698Z,37.85
2022-11-13T19:42:49.497Z,42.10
2022-11-13T19:51:15.800Z,46.22
2022-11-13T19:59:42.703Z,42.30
2022-11-13T20:08:06.870Z,41.60
2022-11-13T20:24:57.189Z,35.10
2022-11-13T20:33:24.001Z,36.72
2022-11-13T20:41:47.924Z,35.88
2022-11-13T20:50:14.894Z,34.42
2022-11-13T20:58:39.305Z,33.95
2022-11-13T21:07:06.148Z,29.58
2022-11-13T21:15:30.385Z,29.10
2022-11-13T21:23:59.486Z,28.70
2022-11-13T21:32:23.673Z,26.40
2022-11-13T21:41:10.620Z,23.17
2022-11-13T21:49:34.592Z,19.80
2022-11-13T21:58:01.447Z,20.40
2022-11-13T22:06:27.178Z,22.30
2022-11-13T22:14:53.669Z,23.77
2022-11-13T22:23:17.550Z,21.90
2022-11-13T22:31:45.103Z,22.02
2022-11-13T22:40:10.217Z,23.23
2022-11-13T22:48:37.878Z,24.05
2022-11-13T22:57:04.291Z,25.30
2022-11-13T23:05:30.653Z,33.15
2022-11-13T23:13:55.852Z,34.80
2022-11-13T23:22:22.282Z,34.22
2022-11-13T23:30:46.357Z,35.80
2022-11-13T23:39:15.002Z,30.50
2022-11-13T23:47:39.162Z,27.05
2022-11-13T23:56:05.835Z,25.30
